sensor_id;sensor_type;location;lat;lon;timestamp;P1;durP1;ratioP1;P2;durP2;ratioP2
76807;SDS011;65758;45.458;11.062;2023-07-28T00:01:48;2.20;;;1.30;;
76807;SDS011;65758;45.458;11.062;2023-07-28T00:04:15;3.00;;;1.30;;
76807;SDS011;65758;45.458;11.062;2023-07-28T00:06:42;1.80;;;1.20;;
76807;SDS011;65758;45.458;11.062;2023-07-28T00:09:09;2.80;;;1.60;;
76807;SDS011;65758;45.458;11.062;2023-07-28T00:11:36;1.90;;;1.30;;
76807;SDS011;65758;45.458;11.062;2023-07-28T00:14:02;4.10;;;1.60;;
76807;SDS011;65758;45.458;11.062;2023-07-28T00:16:29;3.30;;;1.80;;
76807;SDS011;65758;45.458;11.062;2023-07-28T00:18:56;3.20;;;1.60;;
76807;SDS011;65758;45.458;11.062;2023-07-28T00:21:23;2.60;;;1.60;;
76807;SDS011;65758;45.458;11.062;2023-07-28T00:23:50;2.20;;;1.70;;
76807;SDS011;65758;45.458;11.062;2023-07-28T00:26:16;1.40;;;1.10;;
76807;SDS011;65758;45.458;11.062;2023-07-28T00:28:43;3.90;;;1.40;;
76807;SDS011;65758;45.458;11.062;2023-07-28T00:31:10;1.40;;;1.20;;
76807;SDS011;65758;45.458;11.062;2023-07-28T00:33:37;1.90;;;1.40;;
76807;SDS011;65758;45.458;11.062;2023-07-28T00:36:04;1.70;;;1.50;;
76807;SDS011;65758;45.458;11.062;2023-07-28T00:38:31;2.90;;;1.60;;
76807;SDS011;65758;45.458;11.062;2023-07-28T00:40:58;2.30;;;1.20;;
76807;SDS011;65758;45.458;11.062;2023-07-28T00:43:25;1.30;;;1.20;;
76807;SDS011;65758;45.458;11.062;2023-07-28T00:45:51;2.50;;;1.30;;
76807;SDS011;65758;45.458;11.062;2023-07-28T00:48:19;1.90;;;1.40;;
76807;SDS011;65758;45.458;11.062;2023-07-28T00:50:47;1.70;;;1.50;;
76807;SDS011;65758;45.458;11.062;2023-07-28T00:53:15;2.30;;;1.50;;
76807;SDS011;65758;45.458;11.062;2023-07-28T00:55:42;2.40;;;1.30;;
76807;SDS011;65758;45.458;11.062;2023-07-28T00:58:09;2.00;;;1.40;;
76807;SDS011;65758;45.458;11.062;2023-07-28T01:00:36;1.70;;;1.60;;
76807;SDS011;65758;45.458;11.062;2023-07-28T01:03:03;1.60;;;1.40;;
76807;SDS011;65758;45.458;11.062;2023-07-28T01:05:47;1.80;;;1.40;;
76807;SDS011;65758;45.458;11.062;2023-07-28T01:08:18;1.90;;;1.60;;
76807;SDS011;65758;45.458;11.062;2023-07-28T01:10:52;1.90;;;1.60;;
76807;SDS011;65758;45.458;11.062;2023-07-28T01:13:19;1.40;;;1.30;;
76807;SDS011;65758;45.458;11.062;2023-07-28T01:15:47;3.60;;;1.50;;
76807;SDS011;65758;45.458;11.062;2023-07-28T01:18:14;2.90;;;1.60;;
76807;SDS011;65758;45.458;11.062;2023-07-28T01:20:41;2.20;;;1.30;;
76807;SDS011;65758;45.458;11.062;2023-07-28T01:23:24;3.20;;;1.70;;
76807;SDS011;65758;45.458;11.062;2023-07-28T01:28:35;1.10;;;1.00;;
76807;SDS011;65758;45.458;11.062;2023-07-28T01:31:04;2.50;;;1.40;;
76807;SDS011;65758;45.458;11.062;2023-07-28T01:33:32;3.30;;;1.40;;
76807;SDS011;65758;45.458;11.062;2023-07-28T01:36:00;2.60;;;1.40;;
76807;SDS011;65758;45.458;11.062;2023-07-28T01:38:27;1.90;;;1.40;;
76807;SDS011;65758;45.458;11.062;2023-07-28T01:40:54;1.50;;;1.20;;
76807;SDS011;65758;45.458;11.062;2023-07-28T01:43:21;1.90;;;1.30;;
76807;SDS011;65758;45.458;11.062;2023-07-28T01:45:48;2.00;;;1.70;;
76807;SDS011;65758;45.458;11.062;2023-07-28T01:48:15;2.00;;;1.40;;
76807;SDS011;65758;45.458;11.062;2023-07-28T01:50:42;1.30;;;1.20;;
76807;SDS011;65758;45.458;11.062;2023-07-28T01:53:10;1.40;;;1.30;;
76807;SDS011;65758;45.458;11.062;2023-07-28T01:55:37;2.80;;;1.60;;
76807;SDS011;65758;45.458;11.062;2023-07-28T01:58:04;1.00;;;0.90;;
76807;SDS011;65758;45.458;11.062;2023-07-28T02:00:31;1.80;;;1.60;;
76807;SDS011;65758;45.458;11.062;2023-07-28T02:02:58;2.30;;;1.30;;
76807;SDS011;65758;45.458;11.062;2023-07-28T02:05:29;1.20;;;1.10;;
76807;SDS011;65758;45.458;11.062;2023-07-28T02:07:56;1.30;;;1.20;;
76807;SDS011;65758;45.458;11.062;2023-07-28T02:10:25;2.20;;;1.50;;
76807;SDS011;65758;45.458;11.062;2023-07-28T02:12:53;2.00;;;1.40;;
76807;SDS011;65758;45.458;11.062;2023-07-28T02:15:19;2.90;;;1.60;;
76807;SDS011;65758;45.458;11.062;2023-07-28T02:17:46;3.60;;;1.60;;
76807;SDS011;65758;45.458;11.062;2023-07-28T02:20:13;2.40;;;1.30;;
76807;SDS011;65758;45.458;11.062;2023-07-28T02:22:42;2.50;;;1.30;;
76807;SDS011;65758;45.458;11.062;2023-07-28T02:25:09;2.50;;;1.50;;
76807;SDS011;65758;45.458;11.062;2023-07-28T02:27:37;1.30;;;1.20;;
76807;SDS011;65758;45.458;11.062;2023-07-28T02:30:05;4.20;;;1.40;;
76807;SDS011;65758;45.458;11.062;2023-07-28T02:32:33;1.30;;;1.20;;
76807;SDS011;65758;45.458;11.062;2023-07-28T02:35:01;0.90;;;0.90;;
76807;SDS011;65758;45.458;11.062;2023-07-28T02:37:28;3.20;;;1.40;;
76807;SDS011;65758;45.458;11.062;2023-07-28T02:39:54;2.70;;;1.70;;
76807;SDS011;65758;45.458;11.062;2023-07-28T02:42:21;2.50;;;1.30;;
76807;SDS011;65758;45.458;11.062;2023-07-28T02:44:50;2.70;;;1.40;;
76807;SDS011;65758;45.458;11.062;2023-07-28T02:47:17;2.40;;;1.70;;
76807;SDS011;65758;45.458;11.062;2023-07-28T02:49:44;1.60;;;1.30;;
76807;SDS011;65758;45.458;11.062;2023-07-28T02:52:12;2.40;;;1.70;;
76807;SDS011;65758;45.458;11.062;2023-07-28T02:54:39;1.30;;;1.20;;
76807;SDS011;65758;45.458;11.062;2023-07-28T02:57:06;2.30;;;1.50;;
76807;SDS011;65758;45.458;11.062;2023-07-28T02:59:35;4.90;;;1.80;;
76807;SDS011;65758;45.458;11.062;2023-07-28T03:02:03;4.90;;;1.60;;
76807;SDS011;65758;45.458;11.062;2023-07-28T03:04:30;2.30;;;1.30;;
76807;SDS011;65758;45.458;11.062;2023-07-28T03:07:15;4.60;;;1.50;;
76807;SDS011;65758;45.458;11.062;2023-07-28T03:09:45;3.50;;;1.50;;
76807;SDS011;65758;45.458;11.062;2023-07-28T03:12:12;1.60;;;1.50;;
76807;SDS011;65758;45.458;11.062;2023-07-28T03:14:40;3.60;;;1.70;;
76807;SDS011;65758;45.458;11.062;2023-07-28T03:17:07;2.40;;;1.50;;
76807;SDS011;65758;45.458;11.062;2023-07-28T03:19:33;1.80;;;1.60;;
76807;SDS011;65758;45.458;11.062;2023-07-28T03:22:00;2.50;;;1.60;;
76807;SDS011;65758;45.458;11.062;2023-07-28T03:24:27;2.30;;;1.30;;
76807;SDS011;65758;45.458;11.062;2023-07-28T03:26:54;2.10;;;1.60;;
76807;SDS011;65758;45.458;11.062;2023-07-28T03:29:21;3.70;;;1.50;;
76807;SDS011;65758;45.458;11.062;2023-07-28T03:31:49;3.90;;;1.80;;
76807;SDS011;65758;45.458;11.062;2023-07-28T03:34:16;2.30;;;1.30;;
76807;SDS011;65758;45.458;11.062;2023-07-28T03:36:43;1.90;;;1.40;;
76807;SDS011;65758;45.458;11.062;2023-07-28T03:39:10;1.80;;;1.30;;
76807;SDS011;65758;45.458;11.062;2023-07-28T03:41:36;2.50;;;1.60;;
76807;SDS011;65758;45.458;11.062;2023-07-28T03:44:03;2.90;;;1.00;;
76807;SDS011;65758;45.458;11.062;2023-07-28T03:46:30;4.50;;;1.60;;
76807;SDS011;65758;45.458;11.062;2023-07-28T03:48:57;2.50;;;1.70;;
76807;SDS011;65758;45.458;11.062;2023-07-28T03:51:26;2.70;;;1.30;;
76807;SDS011;65758;45.458;11.062;2023-07-28T03:53:53;1.90;;;1.40;;
76807;SDS011;65758;45.458;11.062;2023-07-28T03:56:20;2.40;;;1.40;;
76807;SDS011;65758;45.458;11.062;2023-07-28T03:58:47;2.80;;;1.50;;
76807;SDS011;65758;45.458;11.062;2023-07-28T04:01:14;1.40;;;1.30;;
76807;SDS011;65758;45.458;11.062;2023-07-28T04:03:40;2.20;;;1.50;;
76807;SDS011;65758;45.458;11.062;2023-07-28T04:06:11;2.40;;;1.60;;
76807;SDS011;65758;45.458;11.062;2023-07-28T04:08:39;2.60;;;1.70;;
76807;SDS011;65758;45.458;11.062;2023-07-28T04:11:06;2.80;;;1.50;;
76807;SDS011;65758;45.458;11.062;2023-07-28T04:13:33;3.30;;;1.70;;
76807;SDS011;65758;45.458;11.062;2023-07-28T04:16:00;2.30;;;2.00;;
76807;SDS011;65758;45.458;11.062;2023-07-28T04:18:28;4.70;;;2.00;;
76807;SDS011;65758;45.458;11.062;2023-07-28T04:20:55;3.80;;;2.30;;
76807;SDS011;65758;45.458;11.062;2023-07-28T04:23:22;3.00;;;2.20;;
76807;SDS011;65758;45.458;11.062;2023-07-28T04:25:49;5.60;;;2.30;;
76807;SDS011;65758;45.458;11.062;2023-07-28T04:28:16;5.70;;;2.10;;
76807;SDS011;65758;45.458;11.062;2023-07-28T04:30:43;5.10;;;2.10;;
76807;SDS011;65758;45.458;11.062;2023-07-28T04:33:18;3.10;;;1.80;;
76807;SDS011;65758;45.458;11.062;2023-07-28T04:35:45;3.00;;;1.70;;
76807;SDS011;65758;45.458;11.062;2023-07-28T04:38:15;1.90;;;1.70;;
76807;SDS011;65758;45.458;11.062;2023-07-28T04:40:47;4.40;;;2.00;;
76807;SDS011;65758;45.458;11.062;2023-07-28T04:43:16;4.70;;;1.60;;
76807;SDS011;65758;45.458;11.062;2023-07-28T04:45:47;2.50;;;1.20;;
76807;SDS011;65758;45.458;11.062;2023-07-28T04:48:17;5.10;;;1.50;;
76807;SDS011;65758;45.458;11.062;2023-07-28T04:50:44;2.90;;;1.60;;
76807;SDS011;65758;45.458;11.062;2023-07-28T04:53:17;2.70;;;1.70;;
76807;SDS011;65758;45.458;11.062;2023-07-28T04:56:08;2.30;;;1.50;;
76807;SDS011;65758;45.458;11.062;2023-07-28T04:58:35;3.60;;;1.70;;
76807;SDS011;65758;45.458;11.062;2023-07-28T05:01:02;2.20;;;1.60;;
76807;SDS011;65758;45.458;11.062;2023-07-28T05:03:29;3.70;;;1.90;;
76807;SDS011;65758;45.458;11.062;2023-07-28T05:06:02;2.20;;;1.40;;
76807;SDS011;65758;45.458;11.062;2023-07-28T05:08:31;2.60;;;1.60;;
76807;SDS011;65758;45.458;11.062;2023-07-28T05:10:58;2.40;;;1.70;;
76807;SDS011;65758;45.458;11.062;2023-07-28T05:13:29;4.30;;;1.60;;
76807;SDS011;65758;45.458;11.062;2023-07-28T05:15:56;2.90;;;1.80;;
76807;SDS011;65758;45.458;11.062;2023-07-28T05:18:43;3.30;;;1.80;;
76807;SDS011;65758;45.458;11.062;2023-07-28T05:21:23;3.30;;;1.90;;
76807;SDS011;65758;45.458;11.062;2023-07-28T05:23:50;3.00;;;1.90;;
76807;SDS011;65758;45.458;11.062;2023-07-28T05:26:17;4.20;;;1.60;;
76807;SDS011;65758;45.458;11.062;2023-07-28T05:28:44;10.40;;;2.00;;
76807;SDS011;65758;45.458;11.062;2023-07-28T05:31:12;2.10;;;1.70;;
76807;SDS011;65758;45.458;11.062;2023-07-28T05:33:40;3.10;;;1.80;;
76807;SDS011;65758;45.458;11.062;2023-07-28T05:36:07;1.80;;;1.70;;
76807;SDS011;65758;45.458;11.062;2023-07-28T05:38:34;4.70;;;1.60;;
76807;SDS011;65758;45.458;11.062;2023-07-28T05:41:02;4.20;;;1.90;;
76807;SDS011;65758;45.458;11.062;2023-07-28T05:43:30;4.90;;;1.50;;
76807;SDS011;65758;45.458;11.062;2023-07-28T05:45:58;2.20;;;1.80;;
76807;SDS011;65758;45.458;11.062;2023-07-28T05:48:26;2.10;;;1.70;;
76807;SDS011;65758;45.458;11.062;2023-07-28T05:50:53;2.20;;;1.60;;
76807;SDS011;65758;45.458;11.062;2023-07-28T05:53:21;2.10;;;1.60;;
76807;SDS011;65758;45.458;11.062;2023-07-28T05:55:50;2.60;;;1.50;;
76807;SDS011;65758;45.458;11.062;2023-07-28T05:58:17;2.30;;;1.60;;
76807;SDS011;65758;45.458;11.062;2023-07-28T06:00:44;2.10;;;1.70;;
76807;SDS011;65758;45.458;11.062;2023-07-28T06:03:18;2.00;;;1.50;;
76807;SDS011;65758;45.458;11.062;2023-07-28T06:06:03;2.30;;;1.40;;
76807;SDS011;65758;45.458;11.062;2023-07-28T06:08:30;3.70;;;1.90;;
76807;SDS011;65758;45.458;11.062;2023-07-28T06:10:57;2.80;;;1.50;;
76807;SDS011;65758;45.458;11.062;2023-07-28T06:13:24;3.00;;;1.50;;
76807;SDS011;65758;45.458;11.062;2023-07-28T06:15:53;3.60;;;1.50;;
76807;SDS011;65758;45.458;11.062;2023-07-28T06:18:20;2.40;;;1.40;;
76807;SDS011;65758;45.458;11.062;2023-07-28T06:20:55;6.50;;;2.10;;
76807;SDS011;65758;45.458;11.062;2023-07-28T06:23:22;4.10;;;2.20;;
76807;SDS011;65758;45.458;11.062;2023-07-28T06:25:48;3.30;;;1.90;;
76807;SDS011;65758;45.458;11.062;2023-07-28T06:28:15;4.80;;;1.60;;
76807;SDS011;65758;45.458;11.062;2023-07-28T06:30:42;3.20;;;1.70;;
76807;SDS011;65758;45.458;11.062;2023-07-28T06:33:09;4.40;;;1.70;;
76807;SDS011;65758;45.458;11.062;2023-07-28T06:35:36;8.10;;;1.70;;
76807;SDS011;65758;45.458;11.062;2023-07-28T06:38:03;3.80;;;1.50;;
76807;SDS011;65758;45.458;11.062;2023-07-28T06:40:30;3.50;;;1.60;;
76807;SDS011;65758;45.458;11.062;2023-07-28T06:42:57;5.00;;;1.50;;
76807;SDS011;65758;45.458;11.062;2023-07-28T06:45:25;3.60;;;1.60;;
76807;SDS011;65758;45.458;11.062;2023-07-28T06:47:52;4.20;;;1.90;;
76807;SDS011;65758;45.458;11.062;2023-07-28T06:50:19;2.70;;;1.50;;
76807;SDS011;65758;45.458;11.062;2023-07-28T06:52:46;1.70;;;1.60;;
76807;SDS011;65758;45.458;11.062;2023-07-28T06:55:15;4.10;;;2.10;;
76807;SDS011;65758;45.458;11.062;2023-07-28T06:57:42;3.30;;;2.10;;
76807;SDS011;65758;45.458;11.062;2023-07-28T07:00:11;3.00;;;1.60;;
76807;SDS011;65758;45.458;11.062;2023-07-28T07:02:38;8.00;;;2.30;;
76807;SDS011;65758;45.458;11.062;2023-07-28T07:05:05;3.00;;;2.10;;
76807;SDS011;65758;45.458;11.062;2023-07-28T07:07:33;3.10;;;1.90;;
76807;SDS011;65758;45.458;11.062;2023-07-28T07:10:00;3.80;;;1.60;;
76807;SDS011;65758;45.458;11.062;2023-07-28T07:12:27;2.10;;;1.80;;
76807;SDS011;65758;45.458;11.062;2023-07-28T07:14:54;5.30;;;1.80;;
76807;SDS011;65758;45.458;11.062;2023-07-28T07:17:21;2.60;;;1.80;;
76807;SDS011;65758;45.458;11.062;2023-07-28T07:19:48;3.40;;;1.70;;
76807;SDS011;65758;45.458;11.062;2023-07-28T07:22:15;3.70;;;1.70;;
76807;SDS011;65758;45.458;11.062;2023-07-28T07:24:42;4.50;;;1.60;;
76807;SDS011;65758;45.458;11.062;2023-07-28T07:27:09;4.30;;;1.80;;
76807;SDS011;65758;45.458;11.062;2023-07-28T07:29:38;3.90;;;1.60;;
76807;SDS011;65758;45.458;11.062;2023-07-28T07:32:06;3.40;;;1.50;;
76807;SDS011;65758;45.458;11.062;2023-07-28T07:34:34;2.70;;;1.40;;
76807;SDS011;65758;45.458;11.062;2023-07-28T07:37:01;2.50;;;1.30;;
76807;SDS011;65758;45.458;11.062;2023-07-28T07:39:28;4.20;;;1.60;;
76807;SDS011;65758;45.458;11.062;2023-07-28T07:41:55;2.00;;;1.20;;
76807;SDS011;65758;45.458;11.062;2023-07-28T07:44:21;2.40;;;1.20;;
76807;SDS011;65758;45.458;11.062;2023-07-28T07:46:49;2.40;;;1.40;;
76807;SDS011;65758;45.458;11.062;2023-07-28T07:49:16;3.60;;;1.50;;
76807;SDS011;65758;45.458;11.062;2023-07-28T07:51:43;6.30;;;1.80;;
76807;SDS011;65758;45.458;11.062;2023-07-28T07:54:10;7.10;;;1.70;;
76807;SDS011;65758;45.458;11.062;2023-07-28T07:56:40;3.00;;;1.90;;
76807;SDS011;65758;45.458;11.062;2023-07-28T07:59:06;1.90;;;1.70;;
76807;SDS011;65758;45.458;11.062;2023-07-28T08:01:33;4.70;;;2.00;;
76807;SDS011;65758;45.458;11.062;2023-07-28T08:04:01;4.00;;;1.90;;
76807;SDS011;65758;45.458;11.062;2023-07-28T08:06:28;2.20;;;1.80;;
76807;SDS011;65758;45.458;11.062;2023-07-28T08:08:55;3.90;;;1.70;;
76807;SDS011;65758;45.458;11.062;2023-07-28T08:11:24;2.40;;;1.50;;
76807;SDS011;65758;45.458;11.062;2023-07-28T08:13:51;2.30;;;1.60;;
76807;SDS011;65758;45.458;11.062;2023-07-28T08:16:18;3.20;;;2.10;;
76807;SDS011;65758;45.458;11.062;2023-07-28T08:18:45;3.80;;;2.20;;
76807;SDS011;65758;45.458;11.062;2023-07-28T08:21:13;4.60;;;2.30;;
76807;SDS011;65758;45.458;11.062;2023-07-28T08:23:40;4.40;;;1.80;;
76807;SDS011;65758;45.458;11.062;2023-07-28T08:26:06;3.00;;;1.90;;
76807;SDS011;65758;45.458;11.062;2023-07-28T08:28:34;3.70;;;2.10;;
76807;SDS011;65758;45.458;11.062;2023-07-28T08:31:02;4.70;;;2.70;;
76807;SDS011;65758;45.458;11.062;2023-07-28T08:33:30;4.80;;;1.90;;
76807;SDS011;65758;45.458;11.062;2023-07-28T08:35:57;6.30;;;2.20;;
76807;SDS011;65758;45.458;11.062;2023-07-28T08:38:28;7.20;;;2.50;;
76807;SDS011;65758;45.458;11.062;2023-07-28T08:40:56;2.60;;;1.70;;
76807;SDS011;65758;45.458;11.062;2023-07-28T08:43:25;4.60;;;2.00;;
76807;SDS011;65758;45.458;11.062;2023-07-28T08:45:52;2.80;;;1.80;;
76807;SDS011;65758;45.458;11.062;2023-07-28T08:48:21;4.90;;;1.70;;
76807;SDS011;65758;45.458;11.062;2023-07-28T08:50:48;4.50;;;1.70;;
76807;SDS011;65758;45.458;11.062;2023-07-28T08:53:16;4.20;;;1.60;;
76807;SDS011;65758;45.458;11.062;2023-07-28T08:55:43;4.40;;;1.70;;
76807;SDS011;65758;45.458;11.062;2023-07-28T08:58:29;4.30;;;2.10;;
76807;SDS011;65758;45.458;11.062;2023-07-28T09:00:56;6.40;;;1.60;;
76807;SDS011;65758;45.458;11.062;2023-07-28T09:03:27;4.20;;;1.90;;
76807;SDS011;65758;45.458;11.062;2023-07-28T09:06:01;3.40;;;1.40;;
76807;SDS011;65758;45.458;11.062;2023-07-28T09:08:32;3.40;;;1.70;;
76807;SDS011;65758;45.458;11.062;2023-07-28T09:11:01;3.90;;;1.80;;
76807;SDS011;65758;45.458;11.062;2023-07-28T09:13:38;2.70;;;1.30;;
76807;SDS011;65758;45.458;11.062;2023-07-28T09:16:16;3.90;;;2.00;;
76807;SDS011;65758;45.458;11.062;2023-07-28T09:18:44;4.10;;;1.90;;
76807;SDS011;65758;45.458;11.062;2023-07-28T09:21:21;6.40;;;1.90;;
76807;SDS011;65758;45.458;11.062;2023-07-28T09:23:48;3.50;;;1.70;;
76807;SDS011;65758;45.458;11.062;2023-07-28T09:26:15;4.60;;;1.90;;
76807;SDS011;65758;45.458;11.062;2023-07-28T09:28:43;2.00;;;1.60;;
76807;SDS011;65758;45.458;11.062;2023-07-28T09:31:10;2.30;;;1.50;;
76807;SDS011;65758;45.458;11.062;2023-07-28T09:33:38;2.00;;;1.80;;
76807;SDS011;65758;45.458;11.062;2023-07-28T09:38:40;3.80;;;1.90;;
76807;SDS011;65758;45.458;11.062;2023-07-28T09:41:11;4.60;;;2.20;;
76807;SDS011;65758;45.458;11.062;2023-07-28T09:43:38;4.00;;;1.90;;
76807;SDS011;65758;45.458;11.062;2023-07-28T09:46:08;4.60;;;2.20;;
76807;SDS011;65758;45.458;11.062;2023-07-28T09:48:39;2.30;;;1.90;;
76807;SDS011;65758;45.458;11.062;2023-07-28T09:51:12;2.90;;;1.80;;
76807;SDS011;65758;45.458;11.062;2023-07-28T09:53:53;5.40;;;2.40;;
76807;SDS011;65758;45.458;11.062;2023-07-28T09:56:24;2.70;;;2.10;;
76807;SDS011;65758;45.458;11.062;2023-07-28T09:58:56;3.60;;;2.30;;
76807;SDS011;65758;45.458;11.062;2023-07-28T10:01:24;5.40;;;2.30;;
76807;SDS011;65758;45.458;11.062;2023-07-28T10:03:52;3.60;;;2.10;;
76807;SDS011;65758;45.458;11.062;2023-07-28T10:06:19;2.70;;;1.90;;
76807;SDS011;65758;45.458;11.062;2023-07-28T10:08:49;2.80;;;2.10;;
76807;SDS011;65758;45.458;11.062;2023-07-28T10:11:16;3.20;;;2.10;;
76807;SDS011;65758;45.458;11.062;2023-07-28T10:13:44;5.30;;;2.10;;
76807;SDS011;65758;45.458;11.062;2023-07-28T10:16:13;5.20;;;1.90;;
76807;SDS011;65758;45.458;11.062;2023-07-28T10:18:53;4.60;;;2.00;;
76807;SDS011;65758;45.458;11.062;2023-07-28T10:21:21;3.90;;;1.90;;
76807;SDS011;65758;45.458;11.062;2023-07-28T10:23:54;3.70;;;1.90;;
76807;SDS011;65758;45.458;11.062;2023-07-28T10:26:35;4.30;;;2.30;;
76807;SDS011;65758;45.458;11.062;2023-07-28T10:29:09;5.80;;;2.10;;
76807;SDS011;65758;45.458;11.062;2023-07-28T10:31:35;2.50;;;2.30;;
76807;SDS011;65758;45.458;11.062;2023-07-28T10:34:03;4.40;;;2.20;;
76807;SDS011;65758;45.458;11.062;2023-07-28T10:39:13;4.50;;;2.70;;
76807;SDS011;65758;45.458;11.062;2023-07-28T10:44:30;4.50;;;2.10;;
76807;SDS011;65758;45.458;11.062;2023-07-28T10:46:58;3.90;;;2.60;;
76807;SDS011;65758;45.458;11.062;2023-07-28T10:49:25;7.00;;;3.00;;
76807;SDS011;65758;45.458;11.062;2023-07-28T10:51:52;5.10;;;3.00;;
76807;SDS011;65758;45.458;11.062;2023-07-28T10:54:20;5.60;;;2.30;;
76807;SDS011;65758;45.458;11.062;2023-07-28T10:56:47;4.60;;;2.70;;
76807;SDS011;65758;45.458;11.062;2023-07-28T10:59:14;4.60;;;2.60;;
76807;SDS011;65758;45.458;11.062;2023-07-28T11:01:42;3.50;;;2.20;;
76807;SDS011;65758;45.458;11.062;2023-07-28T11:04:11;6.50;;;2.70;;
76807;SDS011;65758;45.458;11.062;2023-07-28T11:06:40;5.40;;;2.60;;
76807;SDS011;65758;45.458;11.062;2023-07-28T11:09:09;3.10;;;2.50;;
76807;SDS011;65758;45.458;11.062;2023-07-28T11:11:37;5.50;;;2.80;;
76807;SDS011;65758;45.458;11.062;2023-07-28T11:14:06;6.10;;;3.20;;
76807;SDS011;65758;45.458;11.062;2023-07-28T11:16:38;3.90;;;3.10;;
76807;SDS011;65758;45.458;11.062;2023-07-28T11:19:09;5.00;;;2.60;;
76807;SDS011;65758;45.458;11.062;2023-07-28T11:21:44;4.50;;;2.80;;
76807;SDS011;65758;45.458;11.062;2023-07-28T11:24:20;4.20;;;2.20;;
76807;SDS011;65758;45.458;11.062;2023-07-28T11:26:47;4.50;;;2.30;;
76807;SDS011;65758;45.458;11.062;2023-07-28T11:29:16;5.50;;;2.40;;
76807;SDS011;65758;45.458;11.062;2023-07-28T11:31:45;5.90;;;2.30;;
76807;SDS011;65758;45.458;11.062;2023-07-28T11:34:18;5.10;;;2.30;;
76807;SDS011;65758;45.458;11.062;2023-07-28T11:36:45;4.10;;;2.20;;
76807;SDS011;65758;45.458;11.062;2023-07-28T11:39:12;4.40;;;2.20;;
76807;SDS011;65758;45.458;11.062;2023-07-28T11:41:40;2.80;;;2.00;;
76807;SDS011;65758;45.458;11.062;2023-07-28T11:44:08;3.50;;;2.30;;
76807;SDS011;65758;45.458;11.062;2023-07-28T11:46:38;3.30;;;2.10;;
76807;SDS011;65758;45.458;11.062;2023-07-28T11:49:18;4.50;;;2.20;;
76807;SDS011;65758;45.458;11.062;2023-07-28T11:51:49;5.60;;;2.00;;
76807;SDS011;65758;45.458;11.062;2023-07-28T11:54:20;4.60;;;2.50;;
76807;SDS011;65758;45.458;11.062;2023-07-28T11:56:49;3.70;;;2.30;;
76807;SDS011;65758;45.458;11.062;2023-07-28T11:59:18;8.20;;;2.10;;
76807;SDS011;65758;45.458;11.062;2023-07-28T12:01:59;2.60;;;1.80;;
76807;SDS011;65758;45.458;11.062;2023-07-28T12:04:32;4.50;;;2.20;;
76807;SDS011;65758;45.458;11.062;2023-07-28T12:12:12;9.40;;;2.40;;
76807;SDS011;65758;45.458;11.062;2023-07-28T12:14:50;2.70;;;2.10;;
76807;SDS011;65758;45.458;11.062;2023-07-28T12:17:24;1.80;;;1.70;;
76807;SDS011;65758;45.458;11.062;2023-07-28T12:20:13;5.30;;;2.10;;
76807;SDS011;65758;45.458;11.062;2023-07-28T12:22:42;3.10;;;2.10;;
76807;SDS011;65758;45.458;11.062;2023-07-28T12:25:11;4.80;;;2.10;;
76807;SDS011;65758;45.458;11.062;2023-07-28T12:27:38;4.00;;;2.50;;
76807;SDS011;65758;45.458;11.062;2023-07-28T12:30:05;2.90;;;2.20;;
76807;SDS011;65758;45.458;11.062;2023-07-28T12:32:42;6.20;;;2.30;;
76807;SDS011;65758;45.458;11.062;2023-07-28T12:35:28;5.20;;;2.40;;
76807;SDS011;65758;45.458;11.062;2023-07-28T12:38:04;3.40;;;2.20;;
76807;SDS011;65758;45.458;11.062;2023-07-28T12:40:35;2.90;;;1.90;;
76807;SDS011;65758;45.458;11.062;2023-07-28T12:43:04;3.30;;;2.00;;
76807;SDS011;65758;45.458;11.062;2023-07-28T12:45:32;4.00;;;1.80;;
76807;SDS011;65758;45.458;11.062;2023-07-28T12:48:02;3.20;;;2.10;;
76807;SDS011;65758;45.458;11.062;2023-07-28T12:50:30;5.70;;;2.30;;
76807;SDS011;65758;45.458;11.062;2023-07-28T12:53:07;3.10;;;1.80;;
76807;SDS011;65758;45.458;11.062;2023-07-28T12:55:42;3.00;;;2.10;;
76807;SDS011;65758;45.458;11.062;2023-07-28T12:58:12;3.90;;;2.00;;
76807;SDS011;65758;45.458;11.062;2023-07-28T13:00:41;4.50;;;2.30;;
76807;SDS011;65758;45.458;11.062;2023-07-28T13:03:11;2.40;;;2.00;;
76807;SDS011;65758;45.458;11.062;2023-07-28T13:05:38;3.90;;;2.10;;
76807;SDS011;65758;45.458;11.062;2023-07-28T13:08:05;2.80;;;2.00;;
76807;SDS011;65758;45.458;11.062;2023-07-28T13:10:36;3.00;;;2.10;;
76807;SDS011;65758;45.458;11.062;2023-07-28T13:13:06;3.60;;;2.00;;
76807;SDS011;65758;45.458;11.062;2023-07-28T13:15:39;3.50;;;2.20;;
76807;SDS011;65758;45.458;11.062;2023-07-28T13:18:06;3.80;;;2.00;;
76807;SDS011;65758;45.458;11.062;2023-07-28T13:20:34;4.00;;;2.20;;
76807;SDS011;65758;45.458;11.062;2023-07-28T13:23:01;4.30;;;2.10;;
76807;SDS011;65758;45.458;11.062;2023-07-28T13:25:28;3.20;;;1.90;;
76807;SDS011;65758;45.458;11.062;2023-07-28T13:27:54;2.20;;;1.80;;
76807;SDS011;65758;45.458;11.062;2023-07-28T13:30:21;3.40;;;2.20;;
76807;SDS011;65758;45.458;11.062;2023-07-28T13:32:48;2.80;;;2.00;;
76807;SDS011;65758;45.458;11.062;2023-07-28T13:35:15;6.40;;;2.00;;
76807;SDS011;65758;45.458;11.062;2023-07-28T13:37:43;3.70;;;2.00;;
76807;SDS011;65758;45.458;11.062;2023-07-28T13:40:10;2.30;;;1.90;;
76807;SDS011;65758;45.458;11.062;2023-07-28T13:42:39;4.50;;;2.30;;
76807;SDS011;65758;45.458;11.062;2023-07-28T13:45:06;5.40;;;2.10;;
76807;SDS011;65758;45.458;11.062;2023-07-28T13:47:35;2.90;;;2.00;;
76807;SDS011;65758;45.458;11.062;2023-07-28T13:50:02;1.90;;;1.80;;
76807;SDS011;65758;45.458;11.062;2023-07-28T13:52:29;2.40;;;2.00;;
76807;SDS011;65758;45.458;11.062;2023-07-28T13:54:57;3.90;;;2.20;;
76807;SDS011;65758;45.458;11.062;2023-07-28T13:57:26;5.10;;;2.10;;
76807;SDS011;65758;45.458;11.062;2023-07-28T13:59:53;5.30;;;2.20;;
76807;SDS011;65758;45.458;11.062;2023-07-28T14:02:21;4.50;;;2.00;;
76807;SDS011;65758;45.458;11.062;2023-07-28T14:04:47;3.20;;;2.30;;
76807;SDS011;65758;45.458;11.062;2023-07-28T14:07:15;3.50;;;2.30;;
76807;SDS011;65758;45.458;11.062;2023-07-28T14:09:42;3.80;;;2.00;;
76807;SDS011;65758;45.458;11.062;2023-07-28T14:12:08;3.70;;;1.90;;
76807;SDS011;65758;45.458;11.062;2023-07-28T14:14:35;4.50;;;1.90;;
76807;SDS011;65758;45.458;11.062;2023-07-28T14:17:02;6.30;;;2.10;;
76807;SDS011;65758;45.458;11.062;2023-07-28T14:19:29;4.30;;;2.20;;
76807;SDS011;65758;45.458;11.062;2023-07-28T14:21:56;5.00;;;2.20;;
76807;SDS011;65758;45.458;11.062;2023-07-28T14:24:27;6.50;;;2.20;;
76807;SDS011;65758;45.458;11.062;2023-07-28T14:26:54;4.60;;;2.00;;
76807;SDS011;65758;45.458;11.062;2023-07-28T14:29:27;3.60;;;2.10;;
76807;SDS011;65758;45.458;11.062;2023-07-28T14:31:55;3.40;;;2.30;;
76807;SDS011;65758;45.458;11.062;2023-07-28T14:34:23;3.30;;;2.40;;
76807;SDS011;65758;45.458;11.062;2023-07-28T14:36:50;5.50;;;2.20;;
76807;SDS011;65758;45.458;11.062;2023-07-28T14:39:21;4.30;;;2.90;;
76807;SDS011;65758;45.458;11.062;2023-07-28T14:41:49;5.50;;;2.40;;
76807;SDS011;65758;45.458;11.062;2023-07-28T14:44:17;5.40;;;2.40;;
76807;SDS011;65758;45.458;11.062;2023-07-28T14:46:47;3.90;;;2.10;;
76807;SDS011;65758;45.458;11.062;2023-07-28T14:49:18;3.80;;;2.30;;
76807;SDS011;65758;45.458;11.062;2023-07-28T14:51:54;5.30;;;2.80;;
76807;SDS011;65758;45.458;11.062;2023-07-28T14:54:22;5.40;;;2.30;;
76807;SDS011;65758;45.458;11.062;2023-07-28T14:56:55;4.30;;;2.30;;
76807;SDS011;65758;45.458;11.062;2023-07-28T14:59:24;5.30;;;2.30;;